Relevés horaires Bierset (Belgique)


Relevés horaires à Bierset - Samedi 03 Juin 2023
Heure UTC1 Température [°C] Vent [km/h] Hum. [%] Pres.4 [hPa] Visi. [Km] Nébu. [octa] Préc.5 [mm] Cond.
2m. Res. Ros. Dir.2 Vit. Moy. Raf.3
23:00 13.1 12.8 2.3 NE 7.4 7.4 11.1 48 1020.8(0.8/3h) 20 1/8 -- --
22:00 13.7 13.5 2.4 NE 7.4 7.4 11.1 46 1020.7(1.3/3h) 20 1/8 -- --
21:00 14.4 14.3 2.1 NE 7.4 11.1 16.7 43 1020.4(1.3/3h) 20 1/8 -- --
20:00 16.2 16.2 2.8 NE 7.4 9.3 13.0 41 1019.7(0.9/3h) 20 1/8 -- --
19:00 18.3 18.3 3.8 NE 9.3 11.1 16.7 38 1019.1(0.3/3h) 20 1/8 -- --
18:00 19.8 19.8 5.7 NNE 9.3 13.0 20.4 40 1018.6(-0.2/3h) 20 1/8 0/12h
--
17:00 20.8 20.8 6.0 N 11.1 13.0 18.5 38 1018.5(-0.6/3h) 20 0/8 -- --
16:00 21.2 21.2 6.5 NE 11.1 13.0 16.7 38 1018.6(-0.8/3h) 20 0/8 -- --
15:00 21.5 21.5 7.0 NNE 7.4 13.0 20.4 39 1018.7(-0.9/3h) 20 0/8 -- --
14:00 21.1 21.1 6.1 NE 11.1 13.0 18.5 38 1019.1(-0.8/3h) 20 1/8 -- --
13:00 21.0 21.0 6.5 NE 13.0 13.0 20.4 39 1019.4(-0.5/3h) 20 1/8 -- --
12:00 20.1 20.1 6.9 ENE 13.0 14.8 24.1 42 1019.7(-0.2/3h) 20 1/8 0/6h
--
11:00 18.8 18.8 6.9 NE 14.8 14.8 24.1 46 1020.1(-0.1/3h) 20 1/8 -- --
10:00 18.1 18.1 7.9 NE 11.1 11.1 18.5 51 1020.1(0.2/3h) 20 1/8 -- --
09:00 17.4 17.4 7.6 NNE 9.3 11.1 14.8 53 1020.1(0.2/3h) 20 1/8 -- --
08:00 15.6 15.4 7.6 NE 9.3 9.3 13.0 59 1020.1(0.0/3h) 20 0/8 -- --
07:00 14.5 14.4 7.7 NE 7.4 9.3 14.8 64 1020.1(0.1/3h) 20 0/8 -- --
06:00 12.5 11.7 7.3 NE 9.3 9.3 14.8 71 1020.3(0.3/3h) 20 0/8 0/12h
--
05:00 10.1 9.3 7.1 NE 7.4 7.4 9.3 82 1020.6(0.4/3h) 20 0/8 -- --
04:00 8.4 7.7 6.1 NNE 5.6 5.6 5.6 85 1020.5(-0.1/3h) 20 0/8 -- --
03:00 8.9 8.9 6.2 NE 3.7 5.6 7.4 83 1020.3(-0.5/3h) 20 0/8 -- --
02:00 9.0 8.4 6.2 NNE 5.6 5.6 7.4 83 1020.3(-0.5/3h) 20 0/8 -- --
01:00 9.5 9.5 6.1 NNE 3.7 5.6 5.6 79 1020.5(0.1/3h) 20 0/8 -- --
00:00 10.4 10.4 6.3 NE 3.7 11.1 16.7 76 1020.7(0.0/3h) 20 0/8 0/6h
0/24h
--

1 Coordinated Universal Time. Actuellement il est 13:00 locale et 11:00 UTC.

2 Le vent souffle depuis la direction indiquée vers la direction oposée.

3 Les rafales max. sont disponible 40 min après l'heure du relevé.

4 Pour les stations d'altitude (plus de 600m) le géopotentiel du niveau le plus proche de la pression obligatoire est indiqué.

5 Les stations disposant d'un diffuseur peuvent indiquer "trace". Cela signifie que des précipitations ont touchés le sol mais que la quantité est inférieure à 0.1 mm.

Récapitulatif de la journée
Température [°C] Vent [km/h] Ensoleillement4 [h] Precipitations totale5 [mm] Pression [Hpa]
Min1 Max.2 Moy.3 Max. Min Max.
8.2 22.2 10.2 24.1 0 h 0 min 0 1018.5 1020.8

1 Température minimale relevée entre 18:00 UTC la veille et 18:00 UTC le jour donné.

2 Température maximale relevée entre 06:00 UTC le jour donné et 06:00 UTC le lendemain.

3 Vent moyen de la journée basé sur les relevés horaires.

4 Ensoleillement en heures relevé entre 06:00 UTC la veille et 06:00 UTC le jour donné.

5 Précipitations totales tombées entre 06:00 UTC la jour donné et 06:00 UTC le lendemain.

Graphiques horaires